Time;durP1;ratioP1;P1;durP2;ratioP2;P2;SDS_P1;SDS_P2;PMS_P1;PMS_P2;Temp;Humidity;BMP_temperature;BMP_pressure;BME280_temperature;BME280_humidity;BME280_pressure;Samples;Min_cycle;Max_cycle;Signal;HPM_P1;HPM_P2
2022/01/17 00:00:57;;;;;;;86.80;32.13;;;;;;;5.11;100.00;102468.94;5113337;28;20181;-70
2022/01/17 00:03:25;;;;;;;94.60;33.93;;;;;;;5.06;100.00;102490.50;5113236;28;20192;-70
2022/01/17 00:05:53;;;;;;;70.07;30.30;;;;;;;5.05;100.00;102487.03;5115867;28;20650;-70
2022/01/17 00:08:19;;;;;;;82.13;33.57;;;;;;;5.01;100.00;102493.06;5117372;28;20631;-70
2022/01/17 00:10:46;;;;;;;84.63;31.80;;;;;;;5.06;100.00;102498.28;5117621;28;20234;-70
2022/01/17 00:13:22;;;;;;;91.93;32.93;;;;;;;5.04;100.00;102485.31;5117247;28;20703;-70
2022/01/17 00:15:54;;;;;;;95.03;32.87;;;;;;;5.03;100.00;102488.75;5117259;28;20230;-70
2022/01/17 00:18:28;;;;;;;72.00;31.37;;;;;;;5.05;100.00;102497.44;5117465;28;20170;-70
2022/01/17 00:20:56;;;;;;;82.03;30.57;;;;;;;5.03;100.00;102499.16;5117140;28;20199;-70
2022/01/17 00:23:23;;;;;;;70.90;29.40;;;;;;;4.98;100.00;102499.09;5116801;28;20177;-70
2022/01/17 00:25:49;;;;;;;77.60;29.53;;;;;;;5.04;100.00;102507.78;5117052;28;20262;-70
2022/01/17 00:28:16;;;;;;;76.87;28.23;;;;;;;5.01;100.00;102498.28;5116625;28;20254;-70
2022/01/17 00:30:42;;;;;;;76.00;29.00;;;;;;;5.02;100.00;102491.34;5117205;28;20193;-70
2022/01/17 00:33:09;;;;;;;69.80;28.13;;;;;;;4.99;100.00;102481.78;5116808;28;20208;-70
2022/01/17 00:35:36;;;;;;;69.43;27.87;;;;;;;5.07;100.00;102480.16;5116592;28;20197;-70
2022/01/17 00:38:07;;;;;;;75.13;28.67;;;;;;;5.05;100.00;102471.47;5099686;28;20258;-71
2022/01/17 00:40:34;;;;;;;53.10;25.03;;;;;;;5.06;100.00;102462.81;5116477;28;20189;-71
2022/01/17 00:43:00;;;;;;;64.67;26.03;;;;;;;5.10;100.00;102469.78;5116496;28;20550;-71
2022/01/17 00:45:29;;;;;;;56.83;25.27;;;;;;;5.07;100.00;102471.47;5116677;28;20223;-71
2022/01/17 00:47:56;;;;;;;66.67;25.53;;;;;;;5.08;100.00;102476.72;5116351;28;20767;-71
2022/01/17 00:50:25;;;;;;;62.67;26.03;;;;;;;5.08;100.00;102471.50;5116577;28;20189;-71
2022/01/17 00:52:51;;;;;;;65.57;26.43;;;;;;;5.08;100.00;102483.63;5116408;28;20212;-71
2022/01/17 00:55:18;;;;;;;64.50;26.00;;;;;;;5.12;100.00;102488.84;5116355;28;20185;-71
2022/01/17 00:57:44;;;;;;;64.03;25.63;;;;;;;5.06;100.00;102488.78;5116055;28;20258;-71
2022/01/17 01:00:13;;;;;;;63.80;25.90;;;;;;;5.04;100.00;102498.28;5116100;28;20215;-70
2022/01/17 01:02:40;;;;;;;50.53;24.20;;;;;;;5.14;100.00;102504.44;5116309;28;20174;-70
2022/01/17 01:05:07;;;;;;;52.47;25.03;;;;;;;5.15;100.00;102499.28;5097779;28;20197;-70
2022/01/17 01:07:34;;;;;;;65.17;24.53;;;;;;;5.10;100.00;102498.34;5097896;28;20201;-70
2022/01/17 01:12:27;;;;;;;67.13;26.20;;;;;;;5.18;100.00;102470.72;5115788;28;20259;-70
2022/01/17 01:14:54;;;;;;;62.13;26.00;;;;;;;5.11;100.00;102481.91;5116360;28;20189;-70
2022/01/17 01:18:14;;;;;;;58.00;24.67;;;;;;;5.11;100.00;102475.84;5115663;28;20208;-70
2022/01/17 01:20:30;;;;;;;56.63;23.60;;;;;;;5.03;100.00;102477.50;5105009;28;20216;-70
2022/01/17 01:28:28;;;;;;;53.23;25.20;;;;;;;4.94;100.00;102491.28;5115876;28;20193;-70
2022/01/17 01:30:56;;;;;;;66.37;26.93;;;;;;;4.87;100.00;102497.25;5116326;28;20180;-70
2022/01/17 01:33:33;;;;;;;55.87;25.93;;;;;;;4.97;100.00;102507.72;5115512;28;20591;-70
2022/01/17 01:36:05;;;;;;;58.63;26.00;;;;;;;4.93;100.00;102512.91;5115925;28;20191;-71
2022/01/17 01:38:31;;;;;;;53.70;26.40;;;;;;;4.94;100.00;102522.41;5115636;28;20623;-71
2022/01/17 01:40:58;;;;;;;65.53;26.90;;;;;;;5.01;100.00;102532.00;5115387;28;20207;-71
2022/01/17 01:43:25;;;;;;;62.83;27.13;;;;;;;5.06;100.00;102542.44;5115241;28;20587;-70
2022/01/17 01:45:59;;;;;;;68.17;28.33;;;;;;;5.00;100.00;102551.03;5115729;28;20185;-70
2022/01/17 01:48:27;;;;;;;72.50;26.73;;;;;;;5.01;100.00;102537.19;5115442;28;20268;-71
2022/01/17 01:50:54;;;;;;;61.13;25.73;;;;;;;4.98;100.00;102525.03;5115090;28;20230;-71
2022/01/17 01:53:23;;;;;;;69.70;25.77;;;;;;;5.06;100.00;102521.66;5115489;28;20662;-70
2022/01/17 01:55:56;;;;;;;57.33;25.67;;;;;;;5.12;100.00;102507.00;5115291;28;20181;-70
2022/01/17 01:58:24;;;;;;;62.27;25.10;;;;;;;5.09;100.00;102512.19;5114967;28;20177;-70
2022/01/17 02:00:51;;;;;;;62.10;25.47;;;;;;;5.10;100.00;102513.06;5114925;28;20197;-70
2022/01/17 02:03:18;;;;;;;77.30;25.63;;;;;;;5.09;100.00;102514.78;5114854;28;20216;-70
2022/01/17 02:05:45;;;;;;;68.23;26.03;;;;;;;5.04;100.00;102523.38;5114822;28;20193;-70
2022/01/17 02:08:13;;;;;;;80.93;26.87;;;;;;;5.09;100.00;102524.31;5115018;28;20205;-70
2022/01/17 02:10:40;;;;;;;58.97;27.23;;;;;;;5.18;100.00;102512.28;5114706;28;20198;-70
2022/01/17 02:13:06;;;;;;;84.87;28.20;;;;;;;5.12;100.00;102508.75;5096402;28;20217;-70
2022/01/17 02:15:33;;;;;;;70.90;28.07;;;;;;;5.09;100.00;102504.41;5114644;28;20190;-70
2022/01/17 02:18:00;;;;;;;70.47;28.10;;;;;;;5.15;100.00;102514.00;5114460;28;20251;-71
2022/01/17 02:20:39;;;;;;;66.37;27.93;;;;;;;5.17;100.00;102515.72;5114742;28;20712;-70
2022/01/17 02:23:07;;;;;;;77.90;28.73;;;;;;;5.09;100.00;102524.31;5114808;28;20169;-70
2022/01/17 02:25:34;;;;;;;70.10;28.13;;;;;;;5.10;100.00;102526.91;5096430;28;20189;-70
2022/01/17 02:28:01;;;;;;;75.10;29.80;;;;;;;5.08;100.00;102520.84;5114515;28;20227;-70
2022/01/17 02:30:31;;;;;;;65.33;28.37;;;;;;;5.13;100.00;102516.53;5114364;28;20185;-70
2022/01/17 02:32:59;;;;;;;71.87;29.70;;;;;;;5.17;100.00;102522.66;5114539;28;20207;-70
2022/01/17 02:35:27;;;;;;;74.87;29.63;;;;;;;5.10;100.00;102516.53;5114551;28;20190;-70
2022/01/17 02:37:54;;;;;;;77.57;29.50;;;;;;;5.11;100.00;102515.66;5114132;28;20216;-71
2022/01/17 02:40:22;;;;;;;71.27;29.23;;;;;;;5.08;100.00;102518.25;5114202;28;20590;-71
2022/01/17 02:42:51;;;;;;;69.40;29.30;;;;;;;5.03;100.00;102514.72;5114471;28;20223;-70
2022/01/17 02:45:32;;;;;;;72.63;29.20;;;;;;;5.09;100.00;102501.81;5114419;28;20234;-70
2022/01/17 02:48:02;;;;;;;78.40;30.50;;;;;;;5.00;100.00;102503.41;5114289;28;20209;-70
2022/01/17 02:50:29;;;;;;;74.80;28.73;;;;;;;5.01;100.00;102497.41;5114344;28;20182;-70
2022/01/17 02:53:00;;;;;;;68.43;29.77;;;;;;;5.06;100.00;102493.97;5114197;28;20205;-70
2022/01/17 02:55:28;;;;;;;77.07;28.00;;;;;;;5.10;100.00;102493.16;5113951;28;20185;-70
2022/01/17 02:57:55;;;;;;;80.47;29.50;;;;;;;5.09;100.00;102493.16;5114157;28;20213;-70
2022/01/17 03:00:22;;;;;;;82.47;28.93;;;;;;;5.11;100.00;102492.28;5114179;28;20237;-70
2022/01/17 03:02:49;;;;;;;73.27;29.13;;;;;;;5.07;100.00;102494.84;5114155;28;20185;-70
2022/01/17 03:05:17;;;;;;;71.70;27.23;;;;;;;5.06;100.00;102498.28;5113845;28;20192;-70
2022/01/17 03:07:45;;;;;;;70.27;27.87;;;;;;;5.07;100.00;102500.94;5113801;28;20208;-70
2022/01/17 03:10:58;;;;;;;77.67;28.03;;;;;;;5.00;100.00;102493.94;5114343;28;20185;-70
2022/01/17 03:13:10;;;;;;;70.60;25.80;;;;;;;4.98;100.00;102496.50;5103334;28;20760;-70
2022/01/17 03:15:36;;;;;;;58.13;25.23;;;;;;;5.02;100.00;102502.59;5113780;28;20189;-70
2022/01/17 03:18:03;;;;;;;60.97;23.80;;;;;;;5.01;100.00;102516.44;5113706;28;20682;-70
2022/01/17 03:20:30;;;;;;;74.47;26.37;;;;;;;5.06;100.00;102516.47;5113590;28;20204;-70
2022/01/17 03:22:57;;;;;;;69.87;25.97;;;;;;;5.04;100.00;102508.66;5114189;28;20185;-70
2022/01/17 03:25:24;;;;;;;57.60;23.10;;;;;;;5.08;100.00;102507.00;5113659;28;20189;-70
2022/01/17 03:27:50;;;;;;;57.80;24.17;;;;;;;5.05;99.96;102520.78;5113849;28;20247;-70
2022/01/17 03:30:17;;;;;;;59.20;26.07;;;;;;;5.09;99.78;102516.50;5113602;28;20250;-70
2022/01/17 03:32:43;;;;;;;61.57;24.40;;;;;;;5.09;99.73;102514.78;5114140;28;20259;-70
2022/01/17 03:35:10;;;;;;;62.30;24.33;;;;;;;5.06;99.87;102500.88;5114335;28;20262;-70
2022/01/17 03:37:37;;;;;;;73.23;24.23;;;;;;;5.03;99.79;102504.34;5113518;28;20205;-70
2022/01/17 03:40:04;;;;;;;53.90;24.27;;;;;;;5.06;99.48;102504.34;5114943;28;20173;-70
2022/01/17 03:42:31;;;;;;;46.10;22.00;;;;;;;5.09;99.19;102504.41;5117864;28;20189;-70
2022/01/17 03:44:57;;;;;;;72.37;25.07;;;;;;;5.13;98.97;102510.47;5117594;28;20716;-70
2022/01/17 03:47:24;;;;;;;47.87;22.80;;;;;;;5.05;99.03;102505.22;5117479;28;20209;-70
2022/01/17 03:49:50;;;;;;;58.80;23.07;;;;;;;5.06;98.89;102508.69;5117488;28;20238;-70
2022/01/17 03:52:17;;;;;;;60.03;22.63;;;;;;;5.16;98.59;102514.00;5117474;28;20189;-70
2022/01/17 03:54:48;;;;;;;49.23;20.67;;;;;;;5.11;98.16;102520.00;5117624;28;20202;-70
2022/01/17 03:57:15;;;;;;;56.87;22.27;;;;;;;5.11;98.01;102528.66;5117282;28;20260;-70
2022/01/17 03:59:41;;;;;;;42.23;21.37;;;;;;;5.03;97.95;102524.22;5117252;28;20554;-70
2022/01/17 04:02:08;;;;;;;48.80;20.20;;;;;;;5.09;97.75;102524.31;5117253;28;20189;-70
2022/01/17 04:04:35;;;;;;;41.90;18.13;;;;;;;5.11;97.59;102533.84;5117537;28;20177;-70
2022/01/17 04:07:01;;;;;;;40.63;19.37;;;;;;;5.14;97.58;102536.47;5117092;28;20201;-70
2022/01/17 04:09:28;;;;;;;43.70;20.53;;;;;;;5.07;97.83;102532.09;5117396;28;20528;-70
2022/01/17 04:11:54;;;;;;;45.50;20.07;;;;;;;5.07;97.86;102531.19;5117336;28;20185;-70
2022/01/17 04:14:21;;;;;;;53.90;20.67;;;;;;;5.06;97.87;102525.13;5117218;28;20201;-69
2022/01/17 04:16:48;;;;;;;38.97;19.27;;;;;;;5.10;97.52;102526.91;5116916;28;20215;-70
2022/01/17 04:19:16;;;;;;;46.00;21.47;;;;;;;5.10;97.21;102526.03;5116929;28;20275;-70
2022/01/17 04:21:45;;;;;;;46.47;18.83;;;;;;;5.09;97.12;102526.91;5118170;28;20200;-70
2022/01/17 04:24:11;;;;;;;35.57;17.83;;;;;;;5.16;96.89;102532.16;5116882;28;20174;-70
2022/01/17 04:26:38;;;;;;;43.90;19.80;;;;;;;5.18;96.56;102546.03;5117232;28;20604;-70
2022/01/17 04:29:04;;;;;;;40.13;18.03;;;;;;;5.16;96.70;102541.69;5116920;28;20181;-70
2022/01/17 04:31:31;;;;;;;42.17;19.20;;;;;;;5.11;96.89;102549.41;5116786;28;20220;-70
2022/01/17 04:33:57;;;;;;;41.07;17.80;;;;;;;5.20;96.41;102546.03;5116505;28;20246;-70
2022/01/17 04:36:25;;;;;;;45.57;18.50;;;;;;;5.17;96.59;102546.88;5116688;28;20216;-70
2022/01/17 04:38:52;;;;;;;36.60;17.87;;;;;;;5.11;96.59;102557.19;5116761;28;20186;-70
2022/01/17 04:41:21;;;;;;;35.87;16.80;;;;;;;5.13;95.87;102537.31;5116784;28;20651;-70
2022/01/17 04:46:17;;;;;;;39.53;15.83;;;;;;;5.12;95.54;102540.75;5116835;28;20212;-70
2022/01/17 04:48:43;;;;;;;35.30;15.40;;;;;;;5.10;95.17;102532.09;5116870;28;20177;-70
2022/01/17 04:51:10;;;;;;;32.73;15.10;;;;;;;5.10;95.22;102541.63;5116231;28;20215;-70
2022/01/17 04:53:38;;;;;;;23.80;15.20;;;;;;;5.11;95.24;102544.22;5116183;28;20204;-69
2022/01/17 04:56:05;;;;;;;35.47;16.03;;;;;;;5.11;95.24;102554.59;5116135;28;20579;-71
2022/01/17 04:58:31;;;;;;;31.53;14.23;;;;;;;5.07;95.09;102536.38;5116707;28;20217;-70
2022/01/17 05:00:58;;;;;;;30.87;16.37;;;;;;;5.01;95.29;102545.00;5116118;28;20197;-70
2022/01/17 05:03:26;;;;;;;35.97;15.53;;;;;;;5.10;94.88;102549.41;5116056;28;20185;-70
2022/01/17 05:05:54;;;;;;;28.73;15.00;;;;;;;5.06;94.97;102558.88;5116174;28;20193;-70
2022/01/17 05:08:20;;;;;;;26.83;16.03;;;;;;;5.10;94.56;102565.84;5116036;28;20209;-70
2022/01/17 05:10:51;;;;;;;32.20;14.97;;;;;;;5.09;94.65;102571.03;5115947;28;20186;-69
2022/01/17 05:13:23;;;;;;;42.07;14.50;;;;;;;5.00;94.95;102571.81;5116378;28;20184;-69
2022/01/17 05:16:04;;;;;;;36.87;16.10;;;;;;;5.08;94.68;102567.56;5116388;28;20615;-69
2022/01/17 05:20:57;;;;;;;39.47;14.77;;;;;;;5.02;94.49;102575.28;5115570;28;20189;-69
2022/01/17 05:23:23;;;;;;;25.43;13.70;;;;;;;4.99;94.51;102583.00;5115671;28;20185;-69
2022/01/17 05:25:50;;;;;;;30.37;14.07;;;;;;;5.01;94.22;102581.34;5115593;28;20185;-69
2022/01/17 05:28:17;;;;;;;40.53;14.53;;;;;;;5.00;94.15;102582.19;5115845;28;20209;-70
2022/01/17 05:30:43;;;;;;;23.67;13.03;;;;;;;4.95;94.13;102574.34;5116043;28;20214;-70
2022/01/17 05:33:09;;;;;;;25.67;14.27;;;;;;;4.91;94.28;102576.88;5115731;28;20193;-70
2022/01/17 05:35:36;;;;;;;36.73;12.43;;;;;;;4.94;93.77;102576.91;5115309;28;20553;-69
2022/01/17 05:38:03;;;;;;;17.57;12.10;;;;;;;4.95;93.66;102573.47;5115127;28;20212;-69
2022/01/17 05:40:29;;;;;;;23.17;11.87;;;;;;;4.90;93.42;102580.31;5097354;28;20192;-69
2022/01/17 05:42:56;;;;;;;28.97;12.47;;;;;;;4.94;93.30;102585.56;5115285;28;20527;-69
2022/01/17 05:45:24;;;;;;;19.07;11.80;;;;;;;4.93;92.91;102588.16;5097433;28;20234;-69
2022/01/17 05:47:53;;;;;;;20.80;10.77;;;;;;;4.88;93.42;102588.09;5115440;28;20258;-69
2022/01/17 05:50:19;;;;;;;22.47;11.27;;;;;;;4.84;93.35;102595.81;5115720;28;20169;-69
2022/01/17 05:52:49;;;;;;;21.50;11.70;;;;;;;4.88;93.54;102582.91;5115385;28;20193;-69
2022/01/17 05:55:16;;;;;;;18.90;11.97;;;;;;;4.84;93.62;102585.44;5096969;28;20790;-69
2022/01/17 05:57:43;;;;;;;24.67;10.83;;;;;;;4.83;93.73;102565.53;5115217;28;20205;-69
2022/01/17 06:00:13;;;;;;;30.00;10.90;;;;;;;4.83;93.34;102560.34;5097096;28;20585;-69
2022/01/17 06:02:40;;;;;;;17.50;11.20;;;;;;;4.78;93.40;102569.78;5114468;28;20201;-69
2022/01/17 06:05:07;;;;;;;23.03;11.90;;;;;;;4.87;93.27;102554.34;5114783;28;20186;-69
2022/01/17 06:07:34;;;;;;;17.13;10.57;;;;;;;4.88;93.38;102564.72;5114790;28;20619;-69
2022/01/17 06:10:00;;;;;;;17.17;10.10;;;;;;;4.86;93.38;102569.03;5114976;28;20189;-69
2022/01/17 06:12:27;;;;;;;18.33;10.63;;;;;;;4.84;93.40;102570.72;5096497;28;20185;-69
2022/01/17 06:14:53;;;;;;;24.73;10.33;;;;;;;4.81;93.63;102569.84;5096832;28;20205;-69
2022/01/17 06:17:20;;;;;;;16.40;10.93;;;;;;;4.79;93.71;102577.59;5114737;28;20551;-69
2022/01/17 06:19:46;;;;;;;20.53;10.40;;;;;;;4.85;93.66;102576.78;5114431;28;21013;-70
2022/01/17 06:22:12;;;;;;;19.63;10.80;;;;;;;4.79;93.73;102582.81;5114777;28;20221;-69
2022/01/17 06:24:39;;;;;;;13.67;10.50;;;;;;;4.82;93.83;102584.56;5114480;28;20239;-69
2022/01/17 06:27:05;;;;;;;21.03;11.83;;;;;;;4.78;94.08;102585.34;5114335;28;20227;-69
2022/01/17 06:29:32;;;;;;;26.33;11.93;;;;;;;4.77;94.49;102581.00;5114534;28;20204;-69
2022/01/17 06:31:59;;;;;;;16.57;12.03;;;;;;;4.81;94.09;102593.19;5114361;28;20210;-69
2022/01/17 06:34:46;;;;;;;28.17;12.03;;;;;;;4.80;94.25;102583.66;5114201;28;20229;-70
2022/01/17 06:37:13;;;;;;;19.63;10.73;;;;;;;4.82;94.20;102574.16;5114684;28;20217;-70
2022/01/17 06:39:40;;;;;;;21.77;12.10;;;;;;;4.80;94.18;102581.94;5114161;28;20205;-70
2022/01/17 06:42:07;;;;;;;29.13;12.40;;;;;;;4.78;94.34;102565.47;5114658;28;20250;-69
2022/01/17 06:44:34;;;;;;;30.27;14.00;;;;;;;4.78;94.36;102551.63;5114161;28;20226;-69
2022/01/17 06:47:00;;;;;;;19.17;11.97;;;;;;;4.84;94.06;102549.97;5095734;28;20262;-69
2022/01/17 06:49:27;;;;;;;22.03;11.73;;;;;;;4.78;94.20;102549.03;5114013;28;20598;-69
2022/01/17 06:51:53;;;;;;;21.93;11.93;;;;;;;4.84;93.92;102554.28;5114324;28;20242;-69
2022/01/17 06:54:20;;;;;;;31.80;12.23;;;;;;;4.83;93.89;102557.75;5114090;28;20201;-70
2022/01/17 06:56:46;;;;;;;26.20;13.13;;;;;;;4.78;94.14;102557.66;5095623;28;20208;-70
2022/01/17 06:59:14;;;;;;;30.97;12.43;;;;;;;4.75;94.63;102567.16;5113867;28;20245;-69
2022/01/17 07:01:41;;;;;;;26.03;12.40;;;;;;;4.77;94.75;102578.41;5114420;28;20189;-69
2022/01/17 07:04:09;;;;;;;23.83;13.60;;;;;;;4.75;95.22;102588.78;5114038;28;20182;-69
2022/01/17 07:06:37;;;;;;;26.63;12.50;;;;;;;4.75;94.88;102585.31;5113998;28;20261;-70
2022/01/17 07:09:05;;;;;;;21.33;12.67;;;;;;;4.72;95.08;102590.50;5113725;28;20188;-70
2022/01/17 07:11:38;;;;;;;22.73;11.57;;;;;;;4.69;95.14;102609.47;5113678;28;20193;-69
2022/01/17 07:14:06;;;;;;;24.27;11.53;;;;;;;4.63;95.43;102615.44;5113853;28;20715;-70
2022/01/17 07:16:32;;;;;;;21.70;12.60;;;;;;;4.66;95.39;102586.09;5114357;28;20589;-70
2022/01/17 07:18:59;;;;;;;25.53;11.57;;;;;;;4.62;95.62;102574.78;5113653;28;20225;-70
2022/01/17 07:21:25;;;;;;;18.30;12.63;;;;;;;4.56;95.87;102574.69;5113600;28;20196;-69
2022/01/17 07:23:51;;;;;;;23.97;12.70;;;;;;;4.59;95.83;102582.53;5113538;28;20192;-70
2022/01/17 07:26:18;;;;;;;21.07;13.20;;;;;;;4.62;96.15;102585.16;5113573;28;20657;-70
2022/01/17 07:28:44;;;;;;;17.63;13.20;;;;;;;4.61;96.03;102580.81;5113475;28;20707;-70
2022/01/17 07:31:11;;;;;;;23.27;12.30;;;;;;;4.56;96.20;102572.09;5113826;28;20196;-70
2022/01/17 07:33:38;;;;;;;26.03;13.07;;;;;;;4.54;96.28;102581.59;5113764;28;20238;-70
2022/01/17 07:36:05;;;;;;;22.70;12.40;;;;;;;4.52;95.87;102588.50;5113351;28;20200;-70
2022/01/17 07:38:32;;;;;;;22.50;12.57;;;;;;;4.59;96.27;102584.25;5113424;28;20217;-70
2022/01/17 07:40:58;;;;;;;24.37;12.20;;;;;;;4.59;96.23;102600.69;5113443;28;20190;-70
2022/01/17 07:43:45;;;;;;;25.77;13.43;;;;;;;4.57;96.12;102606.69;5113987;28;20204;-70
2022/01/17 07:46:23;;;;;;;22.27;12.17;;;;;;;4.59;96.46;102615.38;5113292;28;20196;-70
2022/01/17 07:49:10;;;;;;;19.47;12.80;;;;;;;4.60;96.26;102615.41;5113395;28;20177;-70
2022/01/17 07:51:40;;;;;;;14.83;12.40;;;;;;;4.61;96.22;102608.50;5113603;28;20181;-70
2022/01/17 07:54:08;;;;;;;18.83;12.77;;;;;;;4.61;96.03;102609.34;5113255;28;20696;-70
2022/01/17 07:56:35;;;;;;;27.33;13.43;;;;;;;4.65;96.06;102613.75;5113843;28;20219;-70
2022/01/17 07:59:02;;;;;;;24.80;13.50;;;;;;;4.64;96.05;102618.91;5113306;28;20257;-70
2022/01/17 08:01:28;;;;;;;41.03;14.27;;;;;;;4.72;96.07;102621.63;5113274;28;20230;-70
2022/01/17 08:03:55;;;;;;;24.40;14.07;;;;;;;4.73;96.08;102625.97;5113662;28;20180;-70
2022/01/17 08:06:22;;;;;;;31.93;15.03;;;;;;;4.75;96.41;102626.84;5113173;28;20193;-70
2022/01/17 08:08:49;;;;;;;26.07;14.33;;;;;;;4.80;96.33;102626.06;5113722;28;20275;-70
2022/01/17 08:11:15;;;;;;;27.50;15.23;;;;;;;4.79;96.66;102626.03;5113479;28;20517;-70
2022/01/17 08:13:42;;;;;;;31.67;17.27;;;;;;;4.83;96.92;102635.59;5113373;28;20193;-70
2022/01/17 08:16:08;;;;;;;34.23;15.93;;;;;;;4.84;96.94;102642.53;5113028;28;20205;-70
2022/01/17 08:18:35;;;;;;;27.10;16.77;;;;;;;4.86;96.57;102630.47;5113079;28;20678;-70
2022/01/17 08:21:03;;;;;;;38.67;17.07;;;;;;;4.86;97.10;102631.34;5113177;28;20201;-70
2022/01/17 08:23:30;;;;;;;26.87;16.70;;;;;;;4.85;97.13;102619.19;5113068;28;20188;-71
2022/01/17 08:25:56;;;;;;;35.43;19.37;;;;;;;4.87;97.20;102630.47;5114600;28;20569;-71
2022/01/17 08:28:23;;;;;;;36.50;19.30;;;;;;;4.92;97.26;102635.69;5098692;28;20181;-70
2022/01/17 08:30:50;;;;;;;36.60;18.57;;;;;;;4.92;97.27;102639.16;5117227;28;20215;-70
2022/01/17 08:33:36;;;;;;;36.77;20.90;;;;;;;5.00;97.19;102639.31;5116353;28;20193;-70
2022/01/17 08:36:03;;;;;;;39.60;20.30;;;;;;;4.96;97.27;102632.31;5116975;28;20209;-71
2022/01/17 08:38:43;;;;;;;38.50;21.23;;;;;;;4.98;97.17;102635.78;5098286;28;20195;-70
2022/01/17 08:41:10;;;;;;;31.63;19.87;;;;;;;4.95;97.43;102656.53;5116400;28;20603;-70
2022/01/17 08:43:36;;;;;;;38.00;19.33;;;;;;;4.90;97.45;102659.06;5116694;28;20181;-70
2022/01/17 08:46:03;;;;;;;40.87;21.07;;;;;;;4.90;97.33;102642.59;5116249;28;20174;-70
2022/01/17 08:48:29;;;;;;;37.50;20.23;;;;;;;4.92;97.45;102630.50;5116743;28;20185;-70
2022/01/17 08:50:56;;;;;;;37.77;20.27;;;;;;;4.94;97.62;102634.03;5116612;28;20548;-70
2022/01/17 08:53:23;;;;;;;38.83;21.00;;;;;;;4.94;97.71;102634.03;5116478;28;20642;-70
2022/01/17 08:55:49;;;;;;;45.27;22.57;;;;;;;5.00;97.63;102647.09;5116648;28;20537;-70
2022/01/17 08:58:16;;;;;;;38.43;21.63;;;;;;;4.98;97.79;102640.97;5116020;28;20205;-70
2022/01/17 09:00:44;;;;;;;40.67;20.23;;;;;;;5.03;97.40;102641.06;5116070;28;20189;-70
2022/01/17 09:03:20;;;;;;;36.73;21.03;;;;;;;5.00;97.59;102644.50;5116647;28;20226;-70
2022/01/17 09:05:48;;;;;;;51.03;21.40;;;;;;;5.02;97.60;102634.13;5116553;28;20173;-70
2022/01/17 09:08:16;;;;;;;39.60;19.17;;;;;;;5.08;97.51;102636.78;5115786;28;20205;-70
2022/01/17 09:10:42;;;;;;;30.13;19.47;;;;;;;5.13;97.24;102630.78;5116125;28;20238;-70
2022/01/17 09:13:09;;;;;;;40.60;20.73;;;;;;;5.12;97.58;102642.03;5115837;28;20196;-70
2022/01/17 09:15:36;;;;;;;36.53;19.70;;;;;;;5.17;97.21;102647.28;5116309;28;20600;-70
2022/01/17 09:18:04;;;;;;;45.00;19.80;;;;;;;5.21;96.73;102649.94;5097971;28;20209;-70
2022/01/17 09:20:34;;;;;;;34.37;20.13;;;;;;;5.19;97.06;102656.81;5115633;28;20196;-70
2022/01/17 09:23:02;;;;;;;39.77;20.67;;;;;;;5.19;96.74;102659.41;5116250;28;20170;-69
2022/01/17 09:25:29;;;;;;;34.33;18.77;;;;;;;5.27;96.63;102671.63;5115933;28;20188;-69
2022/01/17 09:27:56;;;;;;;35.40;19.27;;;;;;;5.24;96.73;102670.75;5115439;28;20702;-70
2022/01/17 09:30:23;;;;;;;36.67;18.33;;;;;;;5.28;96.59;102673.38;5115524;28;20230;-70
2022/01/17 09:32:49;;;;;;;32.93;18.67;;;;;;;5.30;96.21;102663.91;5115514;28;20208;-70
2022/01/17 09:35:16;;;;;;;38.47;18.43;;;;;;;5.29;96.45;102656.94;5115607;28;20201;-70
2022/01/17 09:37:42;;;;;;;36.77;20.03;;;;;;;5.35;96.07;102647.47;5114224;28;20308;-70
2022/01/17 09:40:10;;;;;;;33.83;18.17;;;;;;;5.33;95.91;102662.19;5115362;28;20189;-71
2022/01/17 09:42:38;;;;;;;36.20;18.87;;;;;;;5.35;95.66;102676.06;5115552;28;20734;-70
2022/01/17 09:45:07;;;;;;;44.80;18.40;;;;;;;5.31;96.07;102678.63;5115165;28;20181;-70
2022/01/17 09:47:36;;;;;;;29.03;18.00;;;;;;;5.36;96.08;102677.81;5114972;28;20209;-70
2022/01/17 09:50:09;;;;;;;31.60;18.27;;;;;;;5.34;95.73;102686.44;5115063;28;20663;-70
2022/01/17 09:52:39;;;;;;;33.07;18.10;;;;;;;5.40;96.24;102696.91;5115376;28;20173;-70
2022/01/17 09:55:11;;;;;;;35.23;18.63;;;;;;;5.35;96.54;102714.16;5115265;28;20200;-70
2022/01/17 09:57:54;;;;;;;29.90;17.73;;;;;;;5.32;97.21;102717.59;5115039;28;20690;-70
2022/01/17 10:00:26;;;;;;;36.90;18.33;;;;;;;5.30;97.77;102708.91;5115152;28;20607;-70
2022/01/17 10:02:54;;;;;;;27.27;16.53;;;;;;;5.20;97.95;102726.06;5115472;28;20189;-70
2022/01/17 10:05:22;;;;;;;34.77;17.43;;;;;;;5.19;98.55;102726.06;5115022;28;20210;-70
2022/01/17 10:08:04;;;;;;;29.50;16.73;;;;;;;5.17;99.16;102720.00;5114755;28;20209;-70
2022/01/17 10:10:43;;;;;;;28.20;16.73;;;;;;;5.12;99.37;102721.66;5114988;28;20185;-70
2022/01/17 10:13:25;;;;;;;35.00;17.57;;;;;;;5.16;99.91;102710.47;5115002;28;20177;-70
2022/01/17 10:16:08;;;;;;;37.53;17.97;;;;;;;5.13;99.79;102708.69;5114891;28;20216;-71
2022/01/17 10:18:38;;;;;;;31.10;17.10;;;;;;;5.10;100.00;102713.84;5114555;28;20173;-70
2022/01/17 10:21:12;;;;;;;35.90;16.57;;;;;;;5.08;99.88;102731.13;5114448;28;20201;-70
2022/01/17 10:37:23;;;;;;;28.83;17.33;;;;;;;5.09;100.00;102725.09;5114166;28;20208;-72
2022/01/17 10:40:00;;;;;;;47.43;18.80;;;;;;;5.06;100.00;102708.56;5114578;28;20177;-71
2022/01/17 10:42:28;;;;;;;37.23;17.40;;;;;;;5.09;100.00;102711.22;5114482;28;20181;-71
2022/01/17 10:45:05;;;;;;;38.27;16.70;;;;;;;5.10;100.00;102712.97;5114156;28;20605;-71
2022/01/17 10:47:32;;;;;;;29.00;16.57;;;;;;;5.08;100.00;102694.78;5095834;28;20265;-71
2022/01/17 10:50:07;;;;;;;32.40;17.27;;;;;;;5.09;100.00;102693.94;5113955;28;20188;-71
2022/01/17 10:52:36;;;;;;;28.17;17.73;;;;;;;5.11;100.00;102700.00;5095893;28;20173;-71
2022/01/17 10:55:27;;;;;;;22.47;16.23;;;;;;;5.13;100.00;102703.47;5113865;28;20214;-71
2022/01/17 10:57:56;;;;;;;32.97;16.17;;;;;;;5.15;100.00;102707.00;5114201;28;20245;-72
2022/01/17 11:00:26;;;;;;;25.07;16.33;;;;;;;5.15;100.00;102730.38;5095688;28;20192;-72
2022/01/17 11:02:56;;;;;;;25.00;16.80;;;;;;;5.11;100.00;102731.16;5114677;28;20196;-72
2022/01/17 11:05:23;;;;;;;36.87;16.43;;;;;;;5.16;100.00;102737.28;5113956;28;20192;-72
2022/01/17 11:07:55;;;;;;;33.43;17.70;;;;;;;5.15;100.00;102745.94;5113682;28;20205;-72
2022/01/17 11:10:25;;;;;;;34.30;17.97;;;;;;;5.23;100.00;102756.44;5114075;28;20188;-72
2022/01/17 11:12:54;;;;;;;30.40;17.53;;;;;;;5.22;100.00;102759.88;5114320;28;20230;-72
2022/01/17 11:15:23;;;;;;;39.80;17.87;;;;;;;5.29;100.00;102760.81;5113748;28;20201;-72
2022/01/17 11:17:51;;;;;;;30.00;18.87;;;;;;;5.28;100.00;102759.06;5113604;28;20698;-72
2022/01/17 11:20:21;;;;;;;42.83;18.07;;;;;;;5.32;100.00;102742.69;5113697;28;20325;-72
2022/01/17 11:22:51;;;;;;;37.63;18.00;;;;;;;5.32;100.00;102734.91;5113631;28;20704;-71
2022/01/17 11:25:26;;;;;;;21.03;16.10;;;;;;;5.32;100.00;102733.16;5113518;28;20672;-72
2022/01/17 11:27:52;;;;;;;30.60;16.90;;;;;;;5.30;100.00;102729.69;5113892;28;20312;-72
2022/01/17 11:30:19;;;;;;;35.17;17.50;;;;;;;5.34;100.00;102736.66;5113612;28;20185;-72
2022/01/17 11:32:48;;;;;;;26.37;16.47;;;;;;;5.29;100.00;102745.22;5113510;28;20235;-72
2022/01/17 11:35:17;;;;;;;44.67;17.73;;;;;;;5.33;100.00;102736.63;5113431;28;20627;-72
2022/01/17 11:37:53;;;;;;;39.37;17.17;;;;;;;5.39;100.00;102744.50;5113434;28;20209;-72
2022/01/17 11:40:26;;;;;;;31.43;18.27;;;;;;;5.43;100.00;102746.28;5095581;28;20642;-72
2022/01/17 11:42:53;;;;;;;39.93;18.57;;;;;;;5.45;100.00;102731.59;5113446;28;20177;-72
2022/01/17 11:45:23;;;;;;;30.53;18.30;;;;;;;5.37;100.00;102743.63;5113498;28;20177;-72
2022/01/17 11:48:04;;;;;;;37.27;17.63;;;;;;;5.39;100.00;102742.78;5113349;28;20269;-72